KALI/ALI METAR and TAF weather

Enter ICAO airport designator
Station Type Date Time Source
KALI METAR 2021/07/28 04:53 UTC NOAA

KALI 280453Z AUTO 12004KT 10SM CLR 24/23 A3000 RMK AO2 SLP156 T02390228 $


Station Type Date Time Source
KALI Decoded METAR 2021/07/28 04:53 UTC NOAA

ALICE INTERNATIONAL AIRPORT, TX, United States (KALI) 27-44N 098-01W 53M
Jul 28, 2021 - 12:53 AM EDT / 2021.07.28 0453 UTC
Wind: from the ESE (120 degrees) at 5 MPH (4 KT):0
Visibility: 10 mile(s):0
Sky conditions: clear
Temperature: 75.0 F (23.9 C)
Dew Point: 73.0 F (22.8 C)
Relative Humidity: 93%
Pressure (altimeter): 30 in. Hg (1015 hPa)
ob: KALI 280453Z AUTO 12004KT 10SM CLR 24/23 A3000 RMK AO2 SLP156 T02390228
cycle: 5

Station Type Date Time Source
KALI TAF 2021/07/27 18:22 UTC NOAA

TAF KALI 271720Z 2718/2818 VRB04KT P6SM SCT019
FM272000 13010KT P6SM FEW010 SCT035
FM280700 VRB04KT 3SM BR FEW023
TEMPO 2809/2813 1SM BR BKN010

Example: see airport list